マドリード/バラハス の空港の天気 - METARとTAF

マドリード・バラハス国際空港 ( LEMD / MAD ) - スペイン マドリード
飛行場実況気象(Metar)
観測時間01/22 10:30 CET (01/22 09:30 UTC)
風向・風速南西 1m/s
視程10km以上
天気現象
なし
気温1℃
湿度80%
気圧1017hPa
METARLEMD 220930Z 22002KT CAVOK 01/M02 Q1017 NOSIG
過去の天気等 Google飛行場航空写真 Wunderground天気予報

過去48時間のMETAR

飛行場予報(TAF)
発表時間: 1/22 06:13 CET (1/22 05:13 UTC)
予報対象時間: 22日7時 CET ~ 23日13時 CET
風向・風速不定 2m/s
視程10km以上
なし
TAF COR LEMD 220513Z 2206/2312 VRB03KT CAVOK TX10/2214Z TNM02/2207Z